sensor_id;sensor_type;location;lat;lon;timestamp;temperature;humidity
19090;DHT22;9677;50.656;13.064;2023-01-30T00:02:27;0.70;57.20
19090;DHT22;9677;50.656;13.064;2023-01-30T00:04:56;0.70;57.70
19090;DHT22;9677;50.656;13.064;2023-01-30T00:07:25;0.70;57.20
19090;DHT22;9677;50.656;13.064;2023-01-30T00:09:54;0.60;57.10
19090;DHT22;9677;50.656;13.064;2023-01-30T00:12:22;0.60;57.10
19090;DHT22;9677;50.656;13.064;2023-01-30T00:14:51;0.60;57.70
19090;DHT22;9677;50.656;13.064;2023-01-30T00:17:19;0.60;57.20
19090;DHT22;9677;50.656;13.064;2023-01-30T00:19:49;0.60;57.20
19090;DHT22;9677;50.656;13.064;2023-01-30T00:22:17;0.60;57.20
19090;DHT22;9677;50.656;13.064;2023-01-30T00:24:45;0.50;57.20
19090;DHT22;9677;50.656;13.064;2023-01-30T00:27:14;0.50;57.30
19090;DHT22;9677;50.656;13.064;2023-01-30T00:29:43;0.60;57.50
19090;DHT22;9677;50.656;13.064;2023-01-30T00:32:29;0.50;57.40
19090;DHT22;9677;50.656;13.064;2023-01-30T00:34:59;0.60;57.50
19090;DHT22;9677;50.656;13.064;2023-01-30T00:37:27;0.60;57.50
19090;DHT22;9677;50.656;13.064;2023-01-30T00:39:56;0.60;57.50
19090;DHT22;9677;50.656;13.064;2023-01-30T00:42:26;0.60;57.50
19090;DHT22;9677;50.656;13.064;2023-01-30T00:45:12;0.60;57.50
19090;DHT22;9677;50.656;13.064;2023-01-30T00:47:59;0.60;57.50
19090;DHT22;9677;50.656;13.064;2023-01-30T00:50:29;0.60;57.50
19090;DHT22;9677;50.656;13.064;2023-01-30T00:53:11;0.70;57.50
19090;DHT22;9677;50.656;13.064;2023-01-30T00:55:40;0.70;57.50
19090;DHT22;9677;50.656;13.064;2023-01-30T00:58:09;0.70;57.50
19090;DHT22;9677;50.656;13.064;2023-01-30T01:00:37;0.60;57.40
19090;DHT22;9677;50.656;13.064;2023-01-30T01:03:06;0.60;57.40
19090;DHT22;9677;50.656;13.064;2023-01-30T01:05:36;0.70;57.50
19090;DHT22;9677;50.656;13.064;2023-01-30T01:08:04;0.70;57.60
19090;DHT22;9677;50.656;13.064;2023-01-30T01:10:33;0.70;57.60
19090;DHT22;9677;50.656;13.064;2023-01-30T01:13:02;0.70;57.70
19090;DHT22;9677;50.656;13.064;2023-01-30T01:15:32;0.70;57.70
19090;DHT22;9677;50.656;13.064;2023-01-30T01:18:01;0.80;57.80
19090;DHT22;9677;50.656;13.064;2023-01-30T01:20:30;0.80;57.80
19090;DHT22;9677;50.656;13.064;2023-01-30T01:22:59;0.80;57.80
19090;DHT22;9677;50.656;13.064;2023-01-30T01:25:28;0.80;57.80
19090;DHT22;9677;50.656;13.064;2023-01-30T01:27:56;0.90;57.80
19090;DHT22;9677;50.656;13.064;2023-01-30T01:30:24;0.90;57.80
19090;DHT22;9677;50.656;13.064;2023-01-30T01:32:53;0.90;57.80
19090;DHT22;9677;50.656;13.064;2023-01-30T01:35:21;1.00;57.80
19090;DHT22;9677;50.656;13.064;2023-01-30T01:37:52;1.00;57.90
19090;DHT22;9677;50.656;13.064;2023-01-30T01:40:22;1.00;57.90
19090;DHT22;9677;50.656;13.064;2023-01-30T01:43:14;1.00;57.90
19090;DHT22;9677;50.656;13.064;2023-01-30T01:45:48;1.00;57.80
19090;DHT22;9677;50.656;13.064;2023-01-30T01:48:21;1.10;57.80
19090;DHT22;9677;50.656;13.064;2023-01-30T01:50:57;1.10;57.90
19090;DHT22;9677;50.656;13.064;2023-01-30T01:53:30;1.10;58.10
19090;DHT22;9677;50.656;13.064;2023-01-30T01:56:03;1.10;58.00
19090;DHT22;9677;50.656;13.064;2023-01-30T01:58:36;1.20;58.10
19090;DHT22;9677;50.656;13.064;2023-01-30T02:01:08;1.20;58.10
19090;DHT22;9677;50.656;13.064;2023-01-30T02:03:39;1.20;58.20
19090;DHT22;9677;50.656;13.064;2023-01-30T02:06:11;1.30;58.50
19090;DHT22;9677;50.656;13.064;2023-01-30T02:08:44;1.30;58.70
19090;DHT22;9677;50.656;13.064;2023-01-30T02:11:20;1.40;58.90
19090;DHT22;9677;50.656;13.064;2023-01-30T02:13:51;1.40;59.00
19090;DHT22;9677;50.656;13.064;2023-01-30T02:16:20;1.50;59.60
19090;DHT22;9677;50.656;13.064;2023-01-30T02:18:49;1.50;59.10
19090;DHT22;9677;50.656;13.064;2023-01-30T02:21:45;1.60;59.20
19090;DHT22;9677;50.656;13.064;2023-01-30T02:31:15;1.80;59.40
19090;DHT22;9677;50.656;13.064;2023-01-30T02:33:54;1.90;59.40
19090;DHT22;9677;50.656;13.064;2023-01-30T02:36:37;2.00;59.40
19090;DHT22;9677;50.656;13.064;2023-01-30T02:39:17;2.00;59.40
19090;DHT22;9677;50.656;13.064;2023-01-30T02:41:59;2.10;59.70
19090;DHT22;9677;50.656;13.064;2023-01-30T02:44:36;2.10;59.60
19090;DHT22;9677;50.656;13.064;2023-01-30T02:47:14;2.20;59.70
19090;DHT22;9677;50.656;13.064;2023-01-30T02:49:48;2.30;59.80
19090;DHT22;9677;50.656;13.064;2023-01-30T02:52:20;2.30;59.80
19090;DHT22;9677;50.656;13.064;2023-01-30T02:54:49;2.40;60.40
19090;DHT22;9677;50.656;13.064;2023-01-30T02:57:19;2.50;59.70
19090;DHT22;9677;50.656;13.064;2023-01-30T02:59:54;2.50;59.70
19090;DHT22;9677;50.656;13.064;2023-01-30T03:02:38;2.60;59.80
19090;DHT22;9677;50.656;13.064;2023-01-30T03:05:44;2.70;59.80
19090;DHT22;9677;50.656;13.064;2023-01-30T03:08:24;2.80;59.80
19090;DHT22;9677;50.656;13.064;2023-01-30T03:11:02;2.80;59.70
19090;DHT22;9677;50.656;13.064;2023-01-30T03:13:41;2.90;59.70
19090;DHT22;9677;50.656;13.064;2023-01-30T03:16:18;2.90;59.70
19090;DHT22;9677;50.656;13.064;2023-01-30T03:18:51;3.00;59.70
19090;DHT22;9677;50.656;13.064;2023-01-30T03:21:19;3.00;59.60
19090;DHT22;9677;50.656;13.064;2023-01-30T03:23:51;3.10;59.60
19090;DHT22;9677;50.656;13.064;2023-01-30T03:26:24;3.20;59.70
19090;DHT22;9677;50.656;13.064;2023-01-30T03:28:54;3.20;59.70
19090;DHT22;9677;50.656;13.064;2023-01-30T03:31:23;3.30;59.70
19090;DHT22;9677;50.656;13.064;2023-01-30T03:33:53;3.30;59.60
19090;DHT22;9677;50.656;13.064;2023-01-30T03:36:21;3.30;59.60
19090;DHT22;9677;50.656;13.064;2023-01-30T03:38:50;3.40;59.50
19090;DHT22;9677;50.656;13.064;2023-01-30T03:41:20;3.80;59.60
19090;DHT22;9677;50.656;13.064;2023-01-30T03:43:49;3.50;59.50
19090;DHT22;9677;50.656;13.064;2023-01-30T03:46:17;3.50;59.40
19090;DHT22;9677;50.656;13.064;2023-01-30T03:48:46;3.60;59.30
19090;DHT22;9677;50.656;13.064;2023-01-30T03:51:16;3.60;59.90
19090;DHT22;9677;50.656;13.064;2023-01-30T03:53:45;3.70;59.30
19090;DHT22;9677;50.656;13.064;2023-01-30T03:56:13;3.70;59.30
19090;DHT22;9677;50.656;13.064;2023-01-30T03:58:42;3.80;59.30
19090;DHT22;9677;50.656;13.064;2023-01-30T04:01:21;3.80;59.30
19090;DHT22;9677;50.656;13.064;2023-01-30T04:03:50;3.80;59.30
19090;DHT22;9677;50.656;13.064;2023-01-30T04:06:20;3.90;59.40
19090;DHT22;9677;50.656;13.064;2023-01-30T04:08:51;3.90;59.40
19090;DHT22;9677;50.656;13.064;2023-01-30T04:11:36;3.90;59.40
19090;DHT22;9677;50.656;13.064;2023-01-30T04:14:04;4.00;59.40
19090;DHT22;9677;50.656;13.064;2023-01-30T04:16:41;4.00;59.50
19090;DHT22;9677;50.656;13.064;2023-01-30T04:19:28;4.10;59.40
19090;DHT22;9677;50.656;13.064;2023-01-30T04:21:58;4.10;59.40
19090;DHT22;9677;50.656;13.064;2023-01-30T04:24:27;4.10;59.30
19090;DHT22;9677;50.656;13.064;2023-01-30T04:26:55;4.20;59.30
19090;DHT22;9677;50.656;13.064;2023-01-30T04:29:24;4.20;59.40
19090;DHT22;9677;50.656;13.064;2023-01-30T04:31:54;4.20;59.40
19090;DHT22;9677;50.656;13.064;2023-01-30T04:34:25;4.20;59.30
19090;DHT22;9677;50.656;13.064;2023-01-30T04:36:54;4.30;59.30
19090;DHT22;9677;50.656;13.064;2023-01-30T04:39:23;4.30;59.30
19090;DHT22;9677;50.656;13.064;2023-01-30T04:41:52;4.30;59.30
19090;DHT22;9677;50.656;13.064;2023-01-30T04:44:20;4.30;59.20
19090;DHT22;9677;50.656;13.064;2023-01-30T04:46:56;4.30;59.20
19090;DHT22;9677;50.656;13.064;2023-01-30T04:49:25;4.30;59.20
19090;DHT22;9677;50.656;13.064;2023-01-30T04:51:54;4.40;59.20
19090;DHT22;9677;50.656;13.064;2023-01-30T04:54:24;4.40;59.20
19090;DHT22;9677;50.656;13.064;2023-01-30T04:56:52;4.30;59.20
19090;DHT22;9677;50.656;13.064;2023-01-30T04:59:22;4.40;59.20
19090;DHT22;9677;50.656;13.064;2023-01-30T05:01:51;4.40;59.20
19090;DHT22;9677;50.656;13.064;2023-01-30T05:04:20;4.40;59.10
19090;DHT22;9677;50.656;13.064;2023-01-30T05:06:48;4.40;59.00
19090;DHT22;9677;50.656;13.064;2023-01-30T05:09:16;4.40;59.00
19090;DHT22;9677;50.656;13.064;2023-01-30T05:11:46;4.40;59.00
19090;DHT22;9677;50.656;13.064;2023-01-30T05:14:15;4.50;59.00
19090;DHT22;9677;50.656;13.064;2023-01-30T05:16:43;4.50;59.00
19090;DHT22;9677;50.656;13.064;2023-01-30T05:19:11;4.50;59.00
19090;DHT22;9677;50.656;13.064;2023-01-30T05:21:40;4.50;59.00
19090;DHT22;9677;50.656;13.064;2023-01-30T05:24:08;4.40;59.00
19090;DHT22;9677;50.656;13.064;2023-01-30T05:26:36;4.40;58.90
19090;DHT22;9677;50.656;13.064;2023-01-30T05:29:06;4.50;59.00
19090;DHT22;9677;50.656;13.064;2023-01-30T05:31:36;4.50;59.50
19090;DHT22;9677;50.656;13.064;2023-01-30T05:34:05;4.50;58.90
19090;DHT22;9677;50.656;13.064;2023-01-30T05:36:33;4.50;58.90
19090;DHT22;9677;50.656;13.064;2023-01-30T05:39:02;4.50;58.90
19090;DHT22;9677;50.656;13.064;2023-01-30T05:41:30;4.50;59.00
19090;DHT22;9677;50.656;13.064;2023-01-30T05:43:59;4.50;59.00
19090;DHT22;9677;50.656;13.064;2023-01-30T05:46:28;4.50;59.00
19090;DHT22;9677;50.656;13.064;2023-01-30T05:48:57;4.60;59.20
19090;DHT22;9677;50.656;13.064;2023-01-30T05:51:26;4.50;59.20
19090;DHT22;9677;50.656;13.064;2023-01-30T05:53:54;4.60;59.30
19090;DHT22;9677;50.656;13.064;2023-01-30T05:56:22;4.60;59.40
19090;DHT22;9677;50.656;13.064;2023-01-30T05:58:52;4.60;59.50
19090;DHT22;9677;50.656;13.064;2023-01-30T06:01:22;4.60;59.50
19090;DHT22;9677;50.656;13.064;2023-01-30T06:03:52;4.60;59.60
19090;DHT22;9677;50.656;13.064;2023-01-30T06:06:21;4.70;59.70
19090;DHT22;9677;50.656;13.064;2023-01-30T06:08:52;4.70;59.90
19090;DHT22;9677;50.656;13.064;2023-01-30T06:11:22;4.70;60.00
19090;DHT22;9677;50.656;13.064;2023-01-30T06:13:50;4.70;60.00
19090;DHT22;9677;50.656;13.064;2023-01-30T06:16:19;4.70;60.10
19090;DHT22;9677;50.656;13.064;2023-01-30T06:18:48;4.70;60.00
19090;DHT22;9677;50.656;13.064;2023-01-30T06:21:18;4.70;60.00
19090;DHT22;9677;50.656;13.064;2023-01-30T06:23:46;4.70;60.10
19090;DHT22;9677;50.656;13.064;2023-01-30T06:26:14;4.80;60.00
19090;DHT22;9677;50.656;13.064;2023-01-30T06:28:43;4.80;60.00
19090;DHT22;9677;50.656;13.064;2023-01-30T06:31:11;4.80;60.00
19090;DHT22;9677;50.656;13.064;2023-01-30T06:33:40;4.80;59.90
19090;DHT22;9677;50.656;13.064;2023-01-30T06:36:09;4.80;59.80
19090;DHT22;9677;50.656;13.064;2023-01-30T06:38:39;4.90;59.90
19090;DHT22;9677;50.656;13.064;2023-01-30T06:41:07;4.90;59.90
19090;DHT22;9677;50.656;13.064;2023-01-30T06:43:36;4.90;59.80
19090;DHT22;9677;50.656;13.064;2023-01-30T06:46:04;5.20;59.90
19090;DHT22;9677;50.656;13.064;2023-01-30T06:48:33;4.90;59.70
19090;DHT22;9677;50.656;13.064;2023-01-30T06:51:01;4.90;59.70
19090;DHT22;9677;50.656;13.064;2023-01-30T06:53:29;5.00;59.80
19090;DHT22;9677;50.656;13.064;2023-01-30T06:56:00;5.00;59.70
19090;DHT22;9677;50.656;13.064;2023-01-30T06:58:29;5.00;59.80
19090;DHT22;9677;50.656;13.064;2023-01-30T07:00:57;5.00;59.70
19090;DHT22;9677;50.656;13.064;2023-01-30T07:03:26;5.00;59.70
19090;DHT22;9677;50.656;13.064;2023-01-30T07:05:54;5.00;59.70
19090;DHT22;9677;50.656;13.064;2023-01-30T07:08:23;5.00;59.80
19090;DHT22;9677;50.656;13.064;2023-01-30T07:10:51;5.10;59.80
19090;DHT22;9677;50.656;13.064;2023-01-30T07:13:21;5.10;59.80
19090;DHT22;9677;50.656;13.064;2023-01-30T07:15:49;5.10;59.80
19090;DHT22;9677;50.656;13.064;2023-01-30T07:18:17;5.10;59.80
19090;DHT22;9677;50.656;13.064;2023-01-30T07:20:46;5.10;60.00
19090;DHT22;9677;50.656;13.064;2023-01-30T07:23:15;5.20;60.20
19090;DHT22;9677;50.656;13.064;2023-01-30T07:25:44;5.20;60.70
19090;DHT22;9677;50.656;13.064;2023-01-30T07:28:12;5.20;60.40
19090;DHT22;9677;50.656;13.064;2023-01-30T07:30:42;5.20;60.50
19090;DHT22;9677;50.656;13.064;2023-01-30T07:33:10;5.20;60.40
19090;DHT22;9677;50.656;13.064;2023-01-30T07:35:38;5.30;60.50
19090;DHT22;9677;50.656;13.064;2023-01-30T07:38:07;5.30;60.40
19090;DHT22;9677;50.656;13.064;2023-01-30T07:40:35;5.30;60.30
19090;DHT22;9677;50.656;13.064;2023-01-30T07:43:05;5.30;60.40
19090;DHT22;9677;50.656;13.064;2023-01-30T07:45:36;5.40;60.50
19090;DHT22;9677;50.656;13.064;2023-01-30T07:48:08;5.40;60.80
19090;DHT22;9677;50.656;13.064;2023-01-30T07:50:38;5.40;60.70
19090;DHT22;9677;50.656;13.064;2023-01-30T07:53:09;5.40;60.40
19090;DHT22;9677;50.656;13.064;2023-01-30T07:55:38;5.50;60.50
19090;DHT22;9677;50.656;13.064;2023-01-30T07:58:09;5.50;60.40
19090;DHT22;9677;50.656;13.064;2023-01-30T08:00:38;5.50;60.60
19090;DHT22;9677;50.656;13.064;2023-01-30T08:03:11;5.50;60.40
19090;DHT22;9677;50.656;13.064;2023-01-30T08:05:40;5.70;60.50
19090;DHT22;9677;50.656;13.064;2023-01-30T08:08:10;5.60;60.50
19090;DHT22;9677;50.656;13.064;2023-01-30T08:10:38;5.60;60.40
19090;DHT22;9677;50.656;13.064;2023-01-30T08:13:07;5.60;60.40
19090;DHT22;9677;50.656;13.064;2023-01-30T08:15:35;5.60;60.20
19090;DHT22;9677;50.656;13.064;2023-01-30T08:18:03;5.60;60.30
19090;DHT22;9677;50.656;13.064;2023-01-30T08:20:35;5.70;60.40
19090;DHT22;9677;50.656;13.064;2023-01-30T08:23:04;5.70;60.40
19090;DHT22;9677;50.656;13.064;2023-01-30T08:25:32;5.70;60.40
19090;DHT22;9677;50.656;13.064;2023-01-30T08:28:02;5.70;60.50
19090;DHT22;9677;50.656;13.064;2023-01-30T08:30:30;5.70;60.40
19090;DHT22;9677;50.656;13.064;2023-01-30T08:32:59;5.70;60.40
19090;DHT22;9677;50.656;13.064;2023-01-30T08:35:27;5.70;60.70
19090;DHT22;9677;50.656;13.064;2023-01-30T08:37:57;5.70;60.60
19090;DHT22;9677;50.656;13.064;2023-01-30T08:40:26;5.70;60.70
19090;DHT22;9677;50.656;13.064;2023-01-30T08:42:54;5.70;60.60
19090;DHT22;9677;50.656;13.064;2023-01-30T08:45:22;5.70;60.60
19090;DHT22;9677;50.656;13.064;2023-01-30T08:47:51;5.70;60.60
19090;DHT22;9677;50.656;13.064;2023-01-30T08:50:19;5.70;60.40
19090;DHT22;9677;50.656;13.064;2023-01-30T08:52:47;5.80;60.40
19090;DHT22;9677;50.656;13.064;2023-01-30T08:55:17;5.80;60.50
19090;DHT22;9677;50.656;13.064;2023-01-30T08:57:47;5.80;60.50
19090;DHT22;9677;50.656;13.064;2023-01-30T09:00:16;5.80;60.50
19090;DHT22;9677;50.656;13.064;2023-01-30T09:02:45;5.80;60.50
19090;DHT22;9677;50.656;13.064;2023-01-30T09:05:14;5.80;60.50
19090;DHT22;9677;50.656;13.064;2023-01-30T09:07:42;5.80;60.40
19090;DHT22;9677;50.656;13.064;2023-01-30T09:10:11;5.80;60.40
19090;DHT22;9677;50.656;13.064;2023-01-30T09:12:41;5.80;60.30
19090;DHT22;9677;50.656;13.064;2023-01-30T09:15:09;5.80;60.50
19090;DHT22;9677;50.656;13.064;2023-01-30T09:17:38;5.80;60.90
19090;DHT22;9677;50.656;13.064;2023-01-30T09:20:08;5.80;60.70
19090;DHT22;9677;50.656;13.064;2023-01-30T09:22:57;5.80;60.90
19090;DHT22;9677;50.656;13.064;2023-01-30T09:25:26;5.90;61.00
19090;DHT22;9677;50.656;13.064;2023-01-30T09:27:56;5.90;61.00
19090;DHT22;9677;50.656;13.064;2023-01-30T09:30:25;5.90;61.10
19090;DHT22;9677;50.656;13.064;2023-01-30T09:32:54;5.90;61.10
19090;DHT22;9677;50.656;13.064;2023-01-30T09:35:22;5.90;61.10
19090;DHT22;9677;50.656;13.064;2023-01-30T09:37:52;5.90;61.10
19090;DHT22;9677;50.656;13.064;2023-01-30T09:40:23;6.00;61.00
19090;DHT22;9677;50.656;13.064;2023-01-30T09:43:16;6.20;61.00
19090;DHT22;9677;50.656;13.064;2023-01-30T09:45:59;6.00;60.80
19090;DHT22;9677;50.656;13.064;2023-01-30T09:48:43;6.00;60.70
19090;DHT22;9677;50.656;13.064;2023-01-30T09:51:35;6.10;60.70
19090;DHT22;9677;50.656;13.064;2023-01-30T09:54:17;6.10;60.60
19090;DHT22;9677;50.656;13.064;2023-01-30T09:57:09;6.20;60.60
19090;DHT22;9677;50.656;13.064;2023-01-30T09:59:54;6.20;60.50
19090;DHT22;9677;50.656;13.064;2023-01-30T10:02:36;6.40;60.50
19090;DHT22;9677;50.656;13.064;2023-01-30T10:05:08;6.20;60.30
19090;DHT22;9677;50.656;13.064;2023-01-30T10:07:57;6.30;60.20
19090;DHT22;9677;50.656;13.064;2023-01-30T10:10:41;6.30;60.20
19090;DHT22;9677;50.656;13.064;2023-01-30T10:13:32;6.40;60.20
19090;DHT22;9677;50.656;13.064;2023-01-30T10:16:12;6.40;60.10
19090;DHT22;9677;50.656;13.064;2023-01-30T10:19:10;6.40;60.20
19090;DHT22;9677;50.656;13.064;2023-01-30T10:22:10;6.40;60.10
19090;DHT22;9677;50.656;13.064;2023-01-30T10:24:52;6.50;60.10
19090;DHT22;9677;50.656;13.064;2023-01-30T10:27:27;6.50;60.00
19090;DHT22;9677;50.656;13.064;2023-01-30T10:29:59;6.50;59.90
19090;DHT22;9677;50.656;13.064;2023-01-30T10:32:41;6.50;59.80
19090;DHT22;9677;50.656;13.064;2023-01-30T10:35:16;6.50;59.80
19090;DHT22;9677;50.656;13.064;2023-01-30T10:37:54;6.60;60.50
19090;DHT22;9677;50.656;13.064;2023-01-30T10:40:28;6.50;59.80
19090;DHT22;9677;50.656;13.064;2023-01-30T10:43:02;6.50;59.80
19090;DHT22;9677;50.656;13.064;2023-01-30T10:45:53;6.70;60.00
19090;DHT22;9677;50.656;13.064;2023-01-30T10:48:47;6.50;59.80
19090;DHT22;9677;50.656;13.064;2023-01-30T10:51:36;6.50;59.90
19090;DHT22;9677;50.656;13.064;2023-01-30T10:54:12;6.50;59.90
19090;DHT22;9677;50.656;13.064;2023-01-30T10:56:51;6.50;59.90
19090;DHT22;9677;50.656;13.064;2023-01-30T10:59:25;6.50;60.00
19090;DHT22;9677;50.656;13.064;2023-01-30T11:02:07;6.50;59.90
19090;DHT22;9677;50.656;13.064;2023-01-30T11:04:49;6.50;59.90
19090;DHT22;9677;50.656;13.064;2023-01-30T11:07:24;6.60;60.00
19090;DHT22;9677;50.656;13.064;2023-01-30T11:09:52;6.50;60.00
19090;DHT22;9677;50.656;13.064;2023-01-30T11:12:21;6.40;60.00
19090;DHT22;9677;50.656;13.064;2023-01-30T11:14:55;6.40;60.00
19090;DHT22;9677;50.656;13.064;2023-01-30T11:17:31;6.50;60.00
19090;DHT22;9677;50.656;13.064;2023-01-30T11:20:06;6.40;60.00
19090;DHT22;9677;50.656;13.064;2023-01-30T11:22:45;6.50;60.00
19090;DHT22;9677;50.656;13.064;2023-01-30T11:25:17;6.40;60.40
19090;DHT22;9677;50.656;13.064;2023-01-30T11:27:53;6.40;60.30
19090;DHT22;9677;50.656;13.064;2023-01-30T11:30:27;6.30;60.40
19090;DHT22;9677;50.656;13.064;2023-01-30T11:33:05;6.30;60.40
19090;DHT22;9677;50.656;13.064;2023-01-30T11:35:51;6.30;60.40
19090;DHT22;9677;50.656;13.064;2023-01-30T11:38:23;6.30;60.40
19090;DHT22;9677;50.656;13.064;2023-01-30T11:41:02;6.30;60.40
19090;DHT22;9677;50.656;13.064;2023-01-30T11:43:33;6.20;60.50
19090;DHT22;9677;50.656;13.064;2023-01-30T11:46:04;6.20;60.30
19090;DHT22;9677;50.656;13.064;2023-01-30T11:48:45;6.20;60.40
19090;DHT22;9677;50.656;13.064;2023-01-30T11:51:39;6.20;60.50
19090;DHT22;9677;50.656;13.064;2023-01-30T11:54:12;6.10;61.20
19090;DHT22;9677;50.656;13.064;2023-01-30T11:56:47;6.10;60.60
19090;DHT22;9677;50.656;13.064;2023-01-30T11:59:23;6.10;60.60
19090;DHT22;9677;50.656;13.064;2023-01-30T12:02:02;6.10;60.60
19090;DHT22;9677;50.656;13.064;2023-01-30T12:04:32;6.10;60.70
19090;DHT22;9677;50.656;13.064;2023-01-30T12:07:07;6.10;60.60
19090;DHT22;9677;50.656;13.064;2023-01-30T12:09:43;6.00;60.70
19090;DHT22;9677;50.656;13.064;2023-01-30T12:12:26;6.00;60.90
19090;DHT22;9677;50.656;13.064;2023-01-30T12:15:04;6.00;61.30
19090;DHT22;9677;50.656;13.064;2023-01-30T12:17:44;6.00;61.30
19090;DHT22;9677;50.656;13.064;2023-01-30T12:20:22;6.10;61.50
19090;DHT22;9677;50.656;13.064;2023-01-30T12:23:04;6.10;61.50
19090;DHT22;9677;50.656;13.064;2023-01-30T12:25:41;6.10;61.30
19090;DHT22;9677;50.656;13.064;2023-01-30T12:28:17;6.10;61.40
19090;DHT22;9677;50.656;13.064;2023-01-30T12:30:52;6.20;61.20
19090;DHT22;9677;50.656;13.064;2023-01-30T12:33:27;6.10;61.10
19090;DHT22;9677;50.656;13.064;2023-01-30T12:36:05;6.20;61.10
19090;DHT22;9677;50.656;13.064;2023-01-30T12:38:51;6.20;61.10
19090;DHT22;9677;50.656;13.064;2023-01-30T12:41:37;6.20;61.30
19090;DHT22;9677;50.656;13.064;2023-01-30T12:44:26;6.20;61.20
19090;DHT22;9677;50.656;13.064;2023-01-30T12:47:15;6.30;61.20
19090;DHT22;9677;50.656;13.064;2023-01-30T12:50:03;6.30;61.10
19090;DHT22;9677;50.656;13.064;2023-01-30T12:52:46;6.30;61.00
19090;DHT22;9677;50.656;13.064;2023-01-30T12:55:33;6.30;61.00
19090;DHT22;9677;50.656;13.064;2023-01-30T12:58:10;6.30;61.00
19090;DHT22;9677;50.656;13.064;2023-01-30T13:00:55;6.30;61.00
19090;DHT22;9677;50.656;13.064;2023-01-30T13:03:34;6.30;60.80
19090;DHT22;9677;50.656;13.064;2023-01-30T13:06:12;6.40;60.80
19090;DHT22;9677;50.656;13.064;2023-01-30T13:08:56;6.40;60.80
19090;DHT22;9677;50.656;13.064;2023-01-30T13:11:44;6.40;60.70
19090;DHT22;9677;50.656;13.064;2023-01-30T13:14:25;6.40;60.70
19090;DHT22;9677;50.656;13.064;2023-01-30T13:17:09;6.50;60.60
19090;DHT22;9677;50.656;13.064;2023-01-30T13:19:47;6.50;60.50
19090;DHT22;9677;50.656;13.064;2023-01-30T13:22:24;6.50;60.40
19090;DHT22;9677;50.656;13.064;2023-01-30T13:25:02;6.50;60.40
19090;DHT22;9677;50.656;13.064;2023-01-30T13:27:38;6.60;60.40
19090;DHT22;9677;50.656;13.064;2023-01-30T13:30:13;6.50;60.30
19090;DHT22;9677;50.656;13.064;2023-01-30T13:32:45;6.50;60.10
19090;DHT22;9677;50.656;13.064;2023-01-30T13:35:19;6.50;60.20
19090;DHT22;9677;50.656;13.064;2023-01-30T13:37:51;6.50;60.10
19090;DHT22;9677;50.656;13.064;2023-01-30T13:40:22;6.50;60.10
19090;DHT22;9677;50.656;13.064;2023-01-30T13:42:57;6.50;60.10
19090;DHT22;9677;50.656;13.064;2023-01-30T13:45:29;6.50;60.00
19090;DHT22;9677;50.656;13.064;2023-01-30T13:48:11;6.50;60.00
19090;DHT22;9677;50.656;13.064;2023-01-30T13:50:59;6.50;60.00
19090;DHT22;9677;50.656;13.064;2023-01-30T13:53:41;6.50;60.00
19090;DHT22;9677;50.656;13.064;2023-01-30T13:56:19;6.50;60.00
19090;DHT22;9677;50.656;13.064;2023-01-30T13:59:19;6.50;60.00
19090;DHT22;9677;50.656;13.064;2023-01-30T14:02:18;6.50;60.00
19090;DHT22;9677;50.656;13.064;2023-01-30T14:04:51;6.50;60.00
19090;DHT22;9677;50.656;13.064;2023-01-30T14:07:23;6.50;60.00
19090;DHT22;9677;50.656;13.064;2023-01-30T14:10:10;6.50;60.00
19090;DHT22;9677;50.656;13.064;2023-01-30T14:12:43;6.40;59.90
19090;DHT22;9677;50.656;13.064;2023-01-30T14:15:25;6.50;60.00
19090;DHT22;9677;50.656;13.064;2023-01-30T14:17:57;6.50;60.00
19090;DHT22;9677;50.656;13.064;2023-01-30T14:20:32;6.50;60.70
19090;DHT22;9677;50.656;13.064;2023-01-30T14:23:03;6.50;59.90
19090;DHT22;9677;50.656;13.064;2023-01-30T14:25:44;6.50;60.00
19090;DHT22;9677;50.656;13.064;2023-01-30T14:28:47;6.50;59.90
19090;DHT22;9677;50.656;13.064;2023-01-30T14:31:48;6.50;59.80
19090;DHT22;9677;50.656;13.064;2023-01-30T14:37:50;6.50;60.40
19090;DHT22;9677;50.656;13.064;2023-01-30T14:40:39;6.50;59.80
19090;DHT22;9677;50.656;13.064;2023-01-30T14:43:46;6.50;59.80
19090;DHT22;9677;50.656;13.064;2023-01-30T14:46:40;6.50;59.90
19090;DHT22;9677;50.656;13.064;2023-01-30T14:49:28;6.50;59.80
19090;DHT22;9677;50.656;13.064;2023-01-30T14:51:59;6.50;59.80
19090;DHT22;9677;50.656;13.064;2023-01-30T14:54:38;6.50;59.90
19090;DHT22;9677;50.656;13.064;2023-01-30T14:57:17;6.50;59.90
19090;DHT22;9677;50.656;13.064;2023-01-30T14:59:51;6.50;59.90
19090;DHT22;9677;50.656;13.064;2023-01-30T15:02:42;6.50;59.90
19090;DHT22;9677;50.656;13.064;2023-01-30T15:05:18;6.50;59.90
19090;DHT22;9677;50.656;13.064;2023-01-30T15:07:57;6.50;59.90
19090;DHT22;9677;50.656;13.064;2023-01-30T15:13:42;6.50;59.90
19090;DHT22;9677;50.656;13.064;2023-01-30T15:19:41;6.50;59.90
19090;DHT22;9677;50.656;13.064;2023-01-30T15:22:29;6.50;60.00
19090;DHT22;9677;50.656;13.064;2023-01-30T15:25:23;6.50;60.00
19090;DHT22;9677;50.656;13.064;2023-01-30T15:28:03;6.50;60.10
19090;DHT22;9677;50.656;13.064;2023-01-30T15:30:52;6.50;60.10
19090;DHT22;9677;50.656;13.064;2023-01-30T15:33:25;6.50;60.10
19090;DHT22;9677;50.656;13.064;2023-01-30T15:35:58;6.50;60.00
19090;DHT22;9677;50.656;13.064;2023-01-30T15:38:29;6.50;60.00
19090;DHT22;9677;50.656;13.064;2023-01-30T15:41:00;6.50;60.00
19090;DHT22;9677;50.656;13.064;2023-01-30T15:46:40;6.50;60.00
19090;DHT22;9677;50.656;13.064;2023-01-30T15:49:27;6.50;60.00
19090;DHT22;9677;50.656;13.064;2023-01-30T15:52:12;6.50;60.00
19090;DHT22;9677;50.656;13.064;2023-01-30T15:54:48;6.50;60.00
19090;DHT22;9677;50.656;13.064;2023-01-30T15:57:22;6.50;60.10
19090;DHT22;9677;50.656;13.064;2023-01-30T15:59:53;6.50;60.10
19090;DHT22;9677;50.656;13.064;2023-01-30T16:02:27;6.50;60.10
19090;DHT22;9677;50.656;13.064;2023-01-30T16:05:05;6.50;60.20
19090;DHT22;9677;50.656;13.064;2023-01-30T16:07:41;6.50;60.10
19090;DHT22;9677;50.656;13.064;2023-01-30T16:10:16;6.80;60.20
19090;DHT22;9677;50.656;13.064;2023-01-30T16:12:49;6.60;60.00
19090;DHT22;9677;50.656;13.064;2023-01-30T16:15:26;6.60;59.90
19090;DHT22;9677;50.656;13.064;2023-01-30T16:18:00;6.60;59.90
19090;DHT22;9677;50.656;13.064;2023-01-30T16:20:40;6.80;59.90
19090;DHT22;9677;50.656;13.064;2023-01-30T16:23:29;6.60;59.80
19090;DHT22;9677;50.656;13.064;2023-01-30T16:26:02;6.60;59.90
19090;DHT22;9677;50.656;13.064;2023-01-30T16:28:32;6.60;59.80
19090;DHT22;9677;50.656;13.064;2023-01-30T16:31:03;6.60;59.80
19090;DHT22;9677;50.656;13.064;2023-01-30T16:33:33;6.60;59.80
19090;DHT22;9677;50.656;13.064;2023-01-30T16:36:04;6.60;59.80
19090;DHT22;9677;50.656;13.064;2023-01-30T16:38:36;6.60;59.80
19090;DHT22;9677;50.656;13.064;2023-01-30T16:41:27;6.70;59.80
19090;DHT22;9677;50.656;13.064;2023-01-30T16:44:16;6.60;59.80
19090;DHT22;9677;50.656;13.064;2023-01-30T16:46:48;6.80;59.80
19090;DHT22;9677;50.656;13.064;2023-01-30T16:49:24;6.60;59.60
19090;DHT22;9677;50.656;13.064;2023-01-30T16:52:01;6.70;59.60